首页
METAR-TAF:

METAR-TAF

机场 :

匹兹堡国际机场

匹兹堡, 宾夕法尼亚州, 美国

纬度: 40-30-14N, 经度: 080-15-59W, 海拔: 366米

当前天气观测

该预报发布于47分钟前的18:51 UTC
风速11节,风向东转东南
温度 8°C
湿度 42%
气压 1017 hPa
能見度: 16.1公里
散云层高于25000英尺

METAR: KPIT 171851Z 12011KT 10SM SCT250 08/M04 A3002 RMK AO2 SLP184 T00781039

时间: 14:38 (19:38 UTC)

预报

该预报发布于2小时和9分钟前的17:29 UTC
预报有效从17日的 18点(UTC)到 18日的 24点(UTC)
风速7节,风向东转东南
能見度: 10公里
天空无云
从 18日的 1600点(UTC)
风速3节,风向东南
能見度: 10公里
多云层高于10000英尺

TAF: KPIT 171729Z 1718/1824 11007KT P6SM SKC FM181600 13003KT P6SM BKN100

超过4000个机场的气象观测和天气预报(METAR&TAF报告)。

可查询的气象台以黄色和红色小点在地图上表示。

将鼠标移到小点上方,可查看气象台名称。

然后点击查看天气观测和预报。

如需切换地图:点击带黑十字的绿色按钮放大地图;点击带横线的绿色按钮缩小地图;或者点击绿色箭头查看邻近地区的地图。


METAR-TAF: